createdAt,value
2017-10-14T00:02:19.035Z,14.67
2017-10-14T00:04:46.602Z,19.50
2017-10-14T00:07:14.929Z,12.87
2017-10-14T00:09:42.862Z,13.53
2017-10-14T00:12:10.400Z,13.90
2017-10-14T00:14:38.722Z,14.80
2017-10-14T00:17:06.709Z,12.40
2017-10-14T00:19:34.258Z,15.97
2017-10-14T00:22:01.851Z,11.13
2017-10-14T00:24:29.893Z,16.43
2017-10-14T00:26:57.472Z,12.47
2017-10-14T00:29:25.013Z,12.10
2017-10-14T00:31:52.868Z,17.50
2017-10-14T00:34:20.434Z,15.80
2017-10-14T00:36:48.057Z,13.17
2017-10-14T00:39:15.661Z,16.27
2017-10-14T00:41:43.199Z,14.17
2017-10-14T00:44:10.747Z,16.57
2017-10-14T00:46:38.356Z,12.73
2017-10-14T00:49:05.925Z,13.37
2017-10-14T00:51:33.475Z,15.30
2017-10-14T00:54:01.327Z,10.87
2017-10-14T00:56:28.881Z,22.50
2017-10-14T00:58:56.423Z,12.50
2017-10-14T01:01:24.416Z,12.97
2017-10-14T01:03:51.953Z,11.60
2017-10-14T01:06:19.497Z,13.10
2017-10-14T01:08:47.091Z,15.77
2017-10-14T01:11:14.638Z,13.07
2017-10-14T01:13:42.197Z,10.97
2017-10-14T01:16:10.054Z,12.60
2017-10-14T01:18:37.599Z,12.80
2017-10-14T01:21:05.157Z,11.60
2017-10-14T01:23:33.170Z,12.90
2017-10-14T01:26:01.521Z,14.63
2017-10-14T01:28:29.071Z,13.80
2017-10-14T01:30:56.974Z,14.27
2017-10-14T01:33:24.535Z,13.00
2017-10-14T01:35:52.126Z,10.43
2017-10-14T01:38:20.492Z,11.30
2017-10-14T01:40:48.071Z,15.33
2017-10-14T01:43:16.382Z,15.10
2017-10-14T01:45:44.038Z,10.80
2017-10-14T01:48:11.706Z,17.10
2017-10-14T01:50:39.265Z,8.83
2017-10-14T01:53:07.367Z,10.50
2017-10-14T01:55:35.666Z,9.30
2017-10-14T01:58:03.216Z,10.50
2017-10-14T02:00:30.863Z,10.90
2017-10-14T02:02:58.400Z,11.57
2017-10-14T02:05:25.966Z,15.50
2017-10-14T02:07:53.598Z,9.60
2017-10-14T02:10:21.138Z,17.40
2017-10-14T02:12:48.698Z,12.13
2017-10-14T02:15:17.087Z,14.73
2017-10-14T02:17:45.401Z,11.07
2017-10-14T02:20:12.962Z,13.40
2017-10-14T02:22:40.558Z,12.83
2017-10-14T02:25:08.115Z,16.80
2017-10-14T02:27:35.666Z,12.60
2017-10-14T02:30:03.271Z,10.67
2017-10-14T02:32:30.819Z,13.13
2017-10-14T02:34:59.142Z,13.87
2017-10-14T02:37:26.757Z,10.53
2017-10-14T02:39:55.077Z,11.17
2017-10-14T02:42:22.621Z,13.60
2017-10-14T02:44:50.225Z,11.70
2017-10-14T02:47:17.805Z,12.53
2017-10-14T02:49:46.154Z,12.13
2017-10-14T02:52:13.756Z,14.70
2017-10-14T02:54:41.332Z,12.13
2017-10-14T02:57:08.891Z,10.00
2017-10-14T02:59:36.750Z,14.10
2017-10-14T03:02:04.288Z,17.60
2017-10-14T03:04:32.602Z,11.40
2017-10-14T03:07:00.482Z,11.50
2017-10-14T03:09:28.025Z,18.70
2017-10-14T03:11:55.590Z,12.80
2017-10-14T03:14:23.442Z,11.33
2017-10-14T03:16:50.985Z,13.03
2017-10-14T03:19:19.328Z,11.90
2017-10-14T03:21:47.188Z,11.67
2017-10-14T03:24:14.756Z,12.00
2017-10-14T03:26:42.316Z,12.00
2017-10-14T03:29:10.262Z,11.37
2017-10-14T03:31:37.800Z,8.50
2017-10-14T03:34:05.378Z,10.03
2017-10-14T03:36:33.253Z,12.90
2017-10-14T03:39:00.795Z,11.80
2017-10-14T03:41:28.358Z,11.00
2017-10-14T03:43:55.969Z,10.70
2017-10-14T03:46:23.510Z,12.63
2017-10-14T03:48:51.069Z,13.70
2017-10-14T03:51:18.926Z,17.43
2017-10-14T03:53:46.490Z,10.37
2017-10-14T03:56:14.033Z,13.80
2017-10-14T03:58:42.014Z,16.13
2017-10-14T04:01:09.581Z,12.70
2017-10-14T04:03:37.152Z,12.90
2017-10-14T04:06:04.742Z,13.90
2017-10-14T04:08:32.296Z,11.90
2017-10-14T04:10:59.831Z,11.00
2017-10-14T04:13:27.433Z,13.10
2017-10-14T04:15:54.997Z,11.03
2017-10-14T04:18:22.589Z,14.30
2017-10-14T04:20:50.522Z,10.00
2017-10-14T04:23:18.086Z,12.67
2017-10-14T04:25:45.616Z,12.13
2017-10-14T04:28:13.221Z,10.83
2017-10-14T04:30:40.760Z,11.30
2017-10-14T04:33:08.294Z,24.23
2017-10-14T04:35:36.666Z,14.87
2017-10-14T04:38:04.204Z,9.33
2017-10-14T04:40:31.749Z,11.40
2017-10-14T04:42:59.384Z,9.33
2017-10-14T04:45:26.958Z,10.63
2017-10-14T04:47:54.506Z,10.17
2017-10-14T04:50:22.486Z,13.90
2017-10-14T04:52:50.051Z,12.27
2017-10-14T04:55:17.610Z,16.10
2017-10-14T04:57:45.469Z,9.43
2017-10-14T05:00:13.030Z,9.97
2017-10-14T05:02:40.590Z,14.43
2017-10-14T05:05:08.457Z,12.53
2017-10-14T05:07:36.007Z,12.00
2017-10-14T05:10:03.554Z,13.73
2017-10-14T05:12:31.170Z,10.07
2017-10-14T05:14:58.712Z,12.07
2017-10-14T05:17:26.261Z,14.63
2017-10-14T05:19:53.868Z,12.80
2017-10-14T05:22:22.177Z,12.60
2017-10-14T05:24:49.731Z,11.40
2017-10-14T05:27:17.297Z,9.90
2017-10-14T05:29:44.866Z,11.50
2017-10-14T05:32:12.450Z,11.47
2017-10-14T05:34:40.056Z,12.83
2017-10-14T05:37:07.602Z,15.63
2017-10-14T05:39:35.223Z,16.20
2017-10-14T05:42:03.258Z,14.37
2017-10-14T05:44:30.828Z,13.83
2017-10-14T05:46:58.393Z,11.40
2017-10-14T05:49:25.985Z,14.50
2017-10-14T05:51:53.535Z,11.13
2017-10-14T05:54:21.095Z,10.83
2017-10-14T05:56:48.706Z,10.33
2017-10-14T05:59:16.260Z,14.80
2017-10-14T06:01:43.809Z,16.30
2017-10-14T06:04:11.406Z,11.07
2017-10-14T06:06:38.966Z,10.53
2017-10-14T06:09:06.514Z,11.30
2017-10-14T06:11:34.151Z,12.90
2017-10-14T06:14:01.699Z,11.50
2017-10-14T06:16:30.024Z,10.40
2017-10-14T06:18:57.648Z,12.87
2017-10-14T06:21:25.195Z,11.97
2017-10-14T06:23:53.498Z,13.87
2017-10-14T06:26:21.114Z,10.20
2017-10-14T06:28:48.677Z,10.60
2017-10-14T06:31:16.274Z,9.80
2017-10-14T06:33:44.305Z,10.77
2017-10-14T06:36:11.864Z,13.30
2017-10-14T06:38:39.470Z,11.30
2017-10-14T06:41:07.058Z,13.77
2017-10-14T06:43:34.598Z,11.43
2017-10-14T06:46:02.134Z,13.30
2017-10-14T06:48:30.253Z,14.87
2017-10-14T06:50:57.812Z,11.83
2017-10-14T06:53:25.352Z,14.43
2017-10-14T06:55:52.953Z,10.70
2017-10-14T06:58:20.514Z,18.63
2017-10-14T07:00:48.086Z,15.80
2017-10-14T07:03:15.939Z,13.50
2017-10-14T07:05:43.492Z,18.23
2017-10-14T07:08:11.039Z,12.73
2017-10-14T07:10:38.643Z,12.87
2017-10-14T07:13:06.950Z,10.63
2017-10-14T07:15:34.492Z,17.17
2017-10-14T07:18:02.080Z,13.93
2017-10-14T07:20:29.616Z,13.33
2017-10-14T07:22:57.186Z,13.30
2017-10-14T07:25:24.781Z,12.17
2017-10-14T07:27:52.350Z,10.07
2017-10-14T07:30:19.964Z,11.57
2017-10-14T07:32:47.517Z,10.17
2017-10-14T07:35:15.079Z,9.50
2017-10-14T07:37:42.656Z,17.00
2017-10-14T07:40:10.193Z,13.70
2017-10-14T07:42:37.809Z,11.17
2017-10-14T07:45:05.400Z,14.00
2017-10-14T07:47:32.969Z,16.43
2017-10-14T07:50:00.567Z,16.50
2017-10-14T07:52:28.124Z,17.80
2017-10-14T07:54:55.760Z,11.90
2017-10-14T07:57:23.315Z,15.10
2017-10-14T07:59:50.875Z,14.30
2017-10-14T08:02:18.507Z,12.27
2017-10-14T08:04:46.826Z,12.97
2017-10-14T08:07:14.439Z,10.83
2017-10-14T08:09:42.002Z,12.33
2017-10-14T08:12:09.581Z,12.90
2017-10-14T08:14:37.217Z,14.77
2017-10-14T08:17:05.529Z,16.20
2017-10-14T08:19:33.129Z,12.10
2017-10-14T08:22:00.700Z,14.70
2017-10-14T08:24:28.266Z,17.37
2017-10-14T08:26:56.658Z,14.60
2017-10-14T08:29:24.222Z,15.73
2017-10-14T08:31:52.849Z,15.80
2017-10-14T08:34:20.409Z,17.23
2017-10-14T08:36:47.982Z,16.00
2017-10-14T08:39:15.577Z,16.50
2017-10-14T08:41:43.138Z,18.20
2017-10-14T08:44:11.533Z,23.40
2017-10-14T08:46:39.095Z,15.40
2017-10-14T08:49:06.664Z,15.93
2017-10-14T08:51:34.270Z,16.13
2017-10-14T08:54:01.846Z,18.50
2017-10-14T08:56:29.772Z,17.50
2017-10-14T08:58:57.338Z,19.70
2017-10-14T09:01:24.892Z,17.73
2017-10-14T09:03:52.501Z,19.40
2017-10-14T09:06:20.069Z,18.47
2017-10-14T09:08:47.772Z,16.53
2017-10-14T09:11:15.337Z,17.80
2017-10-14T09:13:42.901Z,21.00
2017-10-14T09:16:10.515Z,19.73
2017-10-14T09:18:38.084Z,19.40
2017-10-14T09:21:05.689Z,16.73
2017-10-14T09:23:33.303Z,20.93
2017-10-14T09:26:00.851Z,22.20
2017-10-14T09:28:29.233Z,24.53
2017-10-14T09:30:56.792Z,19.50
2017-10-14T09:33:25.166Z,24.50
2017-10-14T09:38:26.752Z,29.90
2017-10-14T09:40:54.323Z,21.00
2017-10-14T09:43:21.933Z,25.67
2017-10-14T09:45:49.594Z,25.17
2017-10-14T09:48:17.163Z,20.23
2017-10-14T09:50:44.754Z,24.90
2017-10-14T09:53:12.350Z,22.13
2017-10-14T09:55:39.930Z,23.70
2017-10-14T09:58:07.494Z,20.90
2017-10-14T10:00:35.078Z,19.87
2017-10-14T10:03:03.464Z,21.23
2017-10-14T10:05:31.027Z,22.13
2017-10-14T10:07:59.344Z,20.77
2017-10-14T10:10:26.969Z,25.07
2017-10-14T10:12:55.597Z,15.90
2017-10-14T10:15:23.318Z,11.63
2017-10-14T10:17:50.913Z,15.50
2017-10-14T10:20:18.477Z,17.33
2017-10-14T10:22:46.069Z,12.30
2017-10-14T10:25:13.631Z,15.20
2017-10-14T10:27:41.231Z,11.10
2017-10-14T10:30:08.790Z,11.53
2017-10-14T10:32:36.369Z,11.80
2017-10-14T10:35:03.946Z,13.60
2017-10-14T10:37:31.517Z,13.17
2017-10-14T10:42:32.893Z,13.50
2017-10-14T10:45:00.509Z,13.30
2017-10-14T10:47:28.063Z,12.27
2017-10-14T10:49:55.641Z,11.27
2017-10-14T10:52:23.223Z,13.40
2017-10-14T10:54:50.778Z,9.60
2017-10-14T10:57:18.389Z,9.30
2017-10-14T10:59:45.940Z,7.57
2017-10-14T11:02:13.485Z,6.57
2017-10-14T11:04:41.062Z,8.70
2017-10-14T11:07:08.623Z,7.67
2017-10-14T11:09:36.220Z,7.70
2017-10-14T11:12:03.761Z,6.27
2017-10-14T11:14:31.352Z,6.20
2017-10-14T11:16:58.964Z,7.70
2017-10-14T11:19:26.530Z,6.83
2017-10-14T11:21:54.159Z,8.17
2017-10-14T11:24:21.961Z,9.20
2017-10-14T11:26:49.517Z,8.10
2017-10-14T11:29:17.109Z,8.20
2017-10-14T11:31:44.675Z,8.87
2017-10-14T11:34:12.290Z,8.30
2017-10-14T11:36:39.849Z,10.80
2017-10-14T11:39:07.487Z,10.40
2017-10-14T11:41:36.354Z,10.43
2017-10-14T11:44:03.931Z,12.13
2017-10-14T11:46:31.877Z,10.00
2017-10-14T11:48:59.499Z,9.37
2017-10-14T11:51:27.049Z,10.63
2017-10-14T11:53:54.662Z,7.30
2017-10-14T11:56:22.230Z,11.00
2017-10-14T11:58:49.837Z,14.03
2017-10-14T12:01:17.401Z,11.33
2017-10-14T12:03:44.993Z,10.00
2017-10-14T12:06:12.598Z,16.57
2017-10-14T12:08:40.908Z,9.33
2017-10-14T12:11:08.529Z,10.20
2017-10-14T12:13:36.838Z,10.93
2017-10-14T12:16:04.455Z,8.70
2017-10-14T12:18:32.855Z,14.67
2017-10-14T12:21:00.411Z,8.50
2017-10-14T12:23:28.803Z,7.20
2017-10-14T12:25:56.394Z,8.70
2017-10-14T12:28:23.953Z,7.63
2017-10-14T12:30:51.563Z,7.17
2017-10-14T12:33:19.126Z,10.90
2017-10-14T12:35:47.493Z,6.93
2017-10-14T12:38:15.081Z,8.87
2017-10-14T12:40:42.638Z,7.07
2017-10-14T12:43:10.226Z,12.93
2017-10-14T12:45:37.793Z,9.37
2017-10-14T12:48:05.859Z,6.13
2017-10-14T12:50:33.410Z,5.77
2017-10-14T12:53:01.019Z,6.00
2017-10-14T12:55:29.402Z,8.33
2017-10-14T12:57:56.961Z,7.73
2017-10-14T13:00:25.338Z,11.33
2017-10-14T13:02:52.963Z,11.20
2017-10-14T13:05:20.521Z,5.73
2017-10-14T13:07:48.102Z,4.63
2017-10-14T13:10:15.831Z,8.27
2017-10-14T13:12:43.713Z,6.33
2017-10-14T13:15:12.042Z,7.70
2017-10-14T13:17:40.421Z,7.20
2017-10-14T13:20:08.009Z,7.10
2017-10-14T13:22:35.580Z,5.40
2017-10-14T13:25:03.188Z,7.70
2017-10-14T13:27:30.732Z,9.37
2017-10-14T13:29:58.323Z,9.37
2017-10-14T13:32:25.913Z,7.57
2017-10-14T13:34:53.515Z,7.37
2017-10-14T13:37:21.122Z,6.90
2017-10-14T13:39:48.677Z,8.33
2017-10-14T13:42:16.228Z,8.47
2017-10-14T13:44:43.864Z,10.60
2017-10-14T13:47:12.194Z,5.93
2017-10-14T13:49:39.793Z,5.57
2017-10-14T13:52:07.355Z,4.80
2017-10-14T13:54:34.920Z,5.00
2017-10-14T13:57:03.286Z,7.10
2017-10-14T13:59:30.818Z,8.50
2017-10-14T14:01:58.445Z,10.80
2017-10-14T14:04:25.972Z,9.40
2017-10-14T14:06:53.526Z,12.53
2017-10-14T14:09:21.114Z,6.50
2017-10-14T14:11:49.414Z,7.20
2017-10-14T14:14:17.009Z,10.33
2017-10-14T14:16:44.545Z,8.10
2017-10-14T14:19:12.119Z,11.83
2017-10-14T14:21:39.770Z,8.70
2017-10-14T14:24:07.317Z,6.70
2017-10-14T14:26:35.253Z,9.90
2017-10-14T14:29:02.812Z,5.20
2017-10-14T14:31:31.245Z,11.37
2017-10-14T14:33:58.846Z,11.53
2017-10-14T14:36:26.409Z,7.30
2017-10-14T14:38:54.044Z,7.53
2017-10-14T14:41:21.592Z,6.33
2017-10-14T14:43:49.147Z,11.13
2017-10-14T14:46:16.753Z,5.77
2017-10-14T14:48:44.306Z,5.57
2017-10-14T14:51:12.968Z,8.10
2017-10-14T14:53:40.558Z,4.63
2017-10-14T14:56:08.089Z,5.23
2017-10-14T14:58:35.715Z,6.87
2017-10-14T15:01:03.282Z,7.60
2017-10-14T15:03:30.887Z,6.80
2017-10-14T15:05:59.206Z,6.33
2017-10-14T15:08:26.768Z,5.33
2017-10-14T15:10:54.352Z,5.90
2017-10-14T15:13:21.902Z,7.17
2017-10-14T15:15:49.546Z,6.83
2017-10-14T15:18:17.101Z,7.20
2017-10-14T15:20:44.639Z,4.70
2017-10-14T15:23:12.232Z,7.73
2017-10-14T15:25:39.770Z,6.67
2017-10-14T15:28:07.363Z,8.80
2017-10-14T15:30:34.926Z,7.80
2017-10-14T15:33:03.287Z,14.93
2017-10-14T15:35:30.892Z,20.43
2017-10-14T15:37:59.212Z,6.20
2017-10-14T15:40:26.802Z,5.50
2017-10-14T15:42:54.370Z,7.60
2017-10-14T15:45:22.033Z,6.90
2017-10-14T15:47:49.642Z,6.13
2017-10-14T15:50:17.229Z,7.77
2017-10-14T15:52:44.832Z,8.47
2017-10-14T15:55:12.394Z,17.70
2017-10-14T15:57:40.714Z,8.03
2017-10-14T16:00:08.313Z,7.60
2017-10-14T16:02:35.878Z,6.27
2017-10-14T16:05:03.465Z,5.20
2017-10-14T16:07:31.793Z,4.90
2017-10-14T16:09:59.330Z,7.03
2017-10-14T16:12:26.914Z,6.40
2017-10-14T16:14:54.455Z,9.70
2017-10-14T16:17:22.306Z,4.13
2017-10-14T16:19:49.843Z,5.57
2017-10-14T16:22:18.167Z,7.87
2017-10-14T16:24:45.829Z,5.63
2017-10-14T16:27:13.376Z,6.57
2017-10-14T16:29:41.021Z,7.37
2017-10-14T16:32:08.565Z,11.70
2017-10-14T16:34:36.874Z,7.63
2017-10-14T16:37:04.470Z,5.77
2017-10-14T16:39:32.081Z,8.27
2017-10-14T16:41:59.718Z,6.70
2017-10-14T16:44:27.285Z,7.03
2017-10-14T16:46:54.853Z,7.03
2017-10-14T16:49:22.523Z,12.60
2017-10-14T16:51:50.078Z,8.70
2017-10-14T16:54:18.097Z,11.63
2017-10-14T16:56:45.679Z,19.27
2017-10-14T16:59:13.243Z,12.40
2017-10-14T17:01:41.614Z,12.93
2017-10-14T17:04:09.178Z,5.53
2017-10-14T17:06:36.783Z,9.10
2017-10-14T17:09:04.332Z,11.17
2017-10-14T17:11:31.880Z,9.10
2017-10-14T17:13:59.481Z,8.80
2017-10-14T17:16:27.047Z,13.83
2017-10-14T17:18:54.646Z,9.80
2017-10-14T17:21:22.198Z,10.17
2017-10-14T17:23:50.534Z,12.13
2017-10-14T17:26:18.134Z,14.13
2017-10-14T17:28:46.453Z,12.63
2017-10-14T17:31:14.311Z,14.20
2017-10-14T17:33:41.903Z,17.50
2017-10-14T17:36:09.490Z,12.63
2017-10-14T17:38:37.098Z,13.60
2017-10-14T17:41:04.658Z,16.23
2017-10-14T17:43:32.314Z,14.30
2017-10-14T17:45:59.869Z,15.40
2017-10-14T17:48:27.432Z,19.60
2017-10-14T17:50:55.017Z,16.47
2017-10-14T17:53:22.596Z,12.33
2017-10-14T17:55:50.649Z,13.03
2017-10-14T17:58:18.210Z,10.10
2017-10-14T18:00:45.778Z,12.10
2017-10-14T18:03:13.454Z,11.80
2017-10-14T18:05:41.005Z,13.83
2017-10-14T18:08:08.598Z,16.80
2017-10-14T18:10:36.914Z,19.77
2017-10-14T18:13:04.471Z,15.67
2017-10-14T18:15:32.099Z,23.53
2017-10-14T18:17:59.659Z,21.80
2017-10-14T18:20:28.034Z,24.10
2017-10-14T18:22:56.367Z,25.83
2017-10-14T18:25:23.930Z,20.40
2017-10-14T18:27:51.525Z,23.37
2017-10-14T18:30:19.914Z,16.87
2017-10-14T18:32:48.282Z,14.60
2017-10-14T18:35:16.611Z,20.17
2017-10-14T18:37:44.170Z,22.63
2017-10-14T18:40:12.684Z,17.70
2017-10-14T18:42:40.265Z,16.30
2017-10-14T18:45:07.902Z,14.10
2017-10-14T18:47:35.475Z,18.37
2017-10-14T18:50:03.858Z,15.67
2017-10-14T18:52:31.469Z,14.90
2017-10-14T18:54:59.041Z,19.07
2017-10-14T18:57:26.917Z,26.80
2017-10-14T18:59:55.265Z,21.63
2017-10-14T19:02:22.825Z,19.43
2017-10-14T19:04:50.449Z,19.63
2017-10-14T19:07:18.006Z,20.67
2017-10-14T19:09:46.370Z,22.40
2017-10-14T19:12:13.927Z,30.13
2017-10-14T19:14:41.506Z,26.87
2017-10-14T19:17:09.113Z,27.37
2017-10-14T19:19:36.664Z,40.50
2017-10-14T19:22:04.571Z,23.63
2017-10-14T19:24:32.135Z,22.13
2017-10-14T19:26:59.697Z,23.10
2017-10-14T19:29:27.431Z,25.27
2017-10-14T19:31:55.010Z,31.13
2017-10-14T19:34:22.617Z,29.43
2017-10-14T19:36:50.242Z,32.97
2017-10-14T19:39:17.817Z,29.47
2017-10-14T19:41:46.201Z,30.03
2017-10-14T19:44:13.767Z,27.20
2017-10-14T19:46:41.491Z,33.97
2017-10-14T19:49:09.055Z,31.77
2017-10-14T19:51:36.590Z,25.13
2017-10-14T19:54:04.176Z,36.73
2017-10-14T19:56:31.747Z,32.83
2017-10-14T19:58:59.682Z,33.27
2017-10-14T20:01:27.244Z,42.73
2017-10-14T20:03:54.814Z,45.63
2017-10-14T20:06:22.430Z,41.30
2017-10-14T20:08:49.996Z,37.63
2017-10-14T20:11:17.593Z,35.73
2017-10-14T20:13:45.166Z,33.37
2017-10-14T20:16:12.732Z,41.73
2017-10-14T20:18:41.133Z,38.70
2017-10-14T20:21:08.710Z,45.43
2017-10-14T20:23:36.350Z,43.77
2017-10-14T20:26:03.930Z,45.87
2017-10-14T20:28:31.511Z,38.83
2017-10-14T20:30:59.130Z,37.53
2017-10-14T20:33:26.716Z,33.27
2017-10-14T20:35:54.310Z,34.13
2017-10-14T20:38:21.854Z,38.90
2017-10-14T20:40:49.396Z,38.47
2017-10-14T20:43:16.998Z,41.00
2017-10-14T20:45:44.630Z,40.13
2017-10-14T20:48:12.226Z,36.83
2017-10-14T20:50:39.785Z,31.80
2017-10-14T20:53:07.373Z,37.53
2017-10-14T20:55:35.041Z,39.27
2017-10-14T20:58:02.640Z,34.33
2017-10-14T21:00:30.609Z,34.40
2017-10-14T21:02:58.167Z,39.27
2017-10-14T21:05:25.791Z,29.13
2017-10-14T21:07:53.414Z,31.00
2017-10-14T21:10:20.969Z,26.57
2017-10-14T21:12:48.570Z,28.83
2017-10-14T21:15:16.115Z,41.13
2017-10-14T21:17:43.661Z,32.63
2017-10-14T21:20:11.388Z,27.27
2017-10-14T21:22:38.930Z,32.63
2017-10-14T21:25:06.541Z,32.70
2017-10-14T21:27:34.090Z,29.30
2017-10-14T21:30:01.645Z,27.73
2017-10-14T21:32:29.267Z,38.67
2017-10-14T21:34:56.816Z,37.07
2017-10-14T21:37:24.409Z,24.57
2017-10-14T21:39:51.972Z,26.10
2017-10-14T21:42:19.550Z,30.30
2017-10-14T21:44:47.155Z,28.53
2017-10-14T21:47:14.746Z,29.43
2017-10-14T21:49:42.361Z,32.40
2017-10-14T21:52:09.906Z,40.50
2017-10-14T21:54:38.240Z,30.30
2017-10-14T21:57:05.898Z,23.53
2017-10-14T21:59:33.518Z,25.40
2017-10-14T22:02:01.920Z,27.40
2017-10-14T22:04:29.473Z,28.30
2017-10-14T22:06:57.039Z,23.20
2017-10-14T22:09:24.739Z,29.27
2017-10-14T22:11:52.306Z,22.23
2017-10-14T22:14:19.917Z,25.80
2017-10-14T22:16:47.479Z,22.83
2017-10-14T22:19:15.053Z,28.50
2017-10-14T22:21:42.701Z,23.90
2017-10-14T22:24:10.245Z,35.83
2017-10-14T22:26:37.835Z,21.43
2017-10-14T22:29:05.454Z,19.47
2017-10-14T22:31:33.787Z,20.17
2017-10-14T22:34:01.407Z,18.20
2017-10-14T22:36:29.272Z,22.03
2017-10-14T22:38:56.920Z,25.77
2017-10-14T22:41:25.230Z,18.03
2017-10-14T22:43:52.878Z,18.83
2017-10-14T22:46:20.466Z,19.70
2017-10-14T22:48:48.030Z,21.20
2017-10-14T22:51:15.631Z,23.13
2017-10-14T22:53:43.958Z,28.10
2017-10-14T22:56:11.546Z,19.70
2017-10-14T22:58:39.154Z,15.73
2017-10-14T23:01:06.701Z,17.10
2017-10-14T23:03:34.299Z,16.50
2017-10-14T23:06:01.873Z,19.43
2017-10-14T23:08:29.451Z,19.17
2017-10-14T23:10:57.913Z,16.67
2017-10-14T23:13:26.261Z,12.73
2017-10-14T23:15:53.841Z,11.57
2017-10-14T23:18:21.393Z,12.67
2017-10-14T23:20:48.963Z,17.70
2017-10-14T23:23:16.567Z,17.73
2017-10-14T23:25:44.155Z,12.90
2017-10-14T23:28:12.142Z,13.13
2017-10-14T23:30:39.712Z,13.27
2017-10-14T23:33:07.290Z,15.77
2017-10-14T23:35:35.837Z,20.33
2017-10-14T23:38:03.409Z,13.67
2017-10-14T23:40:31.038Z,16.20
2017-10-14T23:42:58.600Z,12.13
2017-10-14T23:45:26.161Z,10.37
2017-10-14T23:47:53.745Z,11.70
2017-10-14T23:50:21.298Z,11.97
2017-10-14T23:52:48.906Z,14.50
2017-10-14T23:55:16.446Z,19.57
2017-10-14T23:57:44.766Z,14.07
